createdAt,value
2019-05-19T10:33:16.867Z,28.10
2019-05-19T10:35:47.932Z,28.50
2019-05-19T10:38:19.171Z,29.30
2019-05-19T10:40:50.123Z,29.00
2019-05-19T10:43:21.807Z,30.00
2019-05-19T10:46:02.073Z,29.20
2019-05-19T10:48:33.076Z,29.40
2019-05-19T10:51:04.119Z,28.80
2019-05-19T10:53:35.222Z,29.20
2019-05-19T10:56:06.178Z,27.80
2019-05-19T10:58:37.083Z,26.70
2019-05-19T11:01:08.106Z,27.10
2019-05-19T11:03:39.243Z,26.90
2019-05-19T11:06:10.831Z,26.80
2019-05-19T11:08:41.679Z,26.70
2019-05-19T11:11:12.519Z,26.60
2019-05-19T11:13:44.320Z,25.90
2019-05-19T11:16:15.508Z,26.00
2019-05-19T11:18:46.695Z,26.10
2019-05-19T11:21:17.432Z,25.90
2019-05-19T11:23:48.421Z,25.90
2019-05-19T11:26:19.753Z,26.10
2019-05-19T11:28:51.156Z,26.30
2019-05-19T11:31:22.409Z,26.40
2019-05-19T11:33:53.418Z,26.20
2019-05-19T11:36:24.968Z,25.90
2019-05-19T11:38:55.754Z,25.60
2019-05-19T11:41:27.298Z,25.40
2019-05-19T11:43:58.564Z,25.10
2019-05-19T11:46:29.571Z,25.40
2019-05-19T11:49:00.521Z,25.30
2019-05-19T11:51:31.538Z,25.20
2019-05-19T11:54:02.664Z,25.60
2019-05-19T11:56:33.503Z,25.40
2019-05-19T11:59:04.567Z,25.10
2019-05-19T12:01:36.138Z,25.00
2019-05-19T12:04:07.098Z,25.30
2019-05-19T12:06:40.032Z,25.60
2019-05-19T12:17:44.322Z,25.70
2019-05-19T12:20:16.983Z,25.60
2019-05-19T12:22:49.469Z,25.70
2019-05-19T12:25:22.122Z,25.20
2019-05-19T12:27:54.508Z,25.50
2019-05-19T12:30:26.902Z,26.10
2019-05-19T12:32:59.524Z,26.40
2019-05-19T12:35:32.058Z,26.40
2019-05-19T12:38:05.487Z,26.20
2019-05-19T12:40:38.220Z,26.50
2019-05-19T12:43:10.790Z,26.70
2019-05-19T12:45:43.247Z,26.50
2019-05-19T12:48:16.164Z,26.30
2019-05-19T12:50:48.640Z,26.40
2019-05-19T12:53:20.986Z,26.80
2019-05-19T12:55:53.632Z,27.00
2019-05-19T12:58:25.918Z,27.00
2019-05-19T13:00:58.109Z,27.20
2019-05-19T13:03:30.255Z,26.70
2019-05-19T13:06:02.420Z,26.80
2019-05-19T13:08:35.761Z,26.50
2019-05-19T13:11:08.411Z,26.30
2019-05-19T13:13:40.619Z,26.20
2019-05-19T13:16:13.336Z,25.30
2019-05-19T13:18:45.655Z,24.40
2019-05-19T13:21:17.775Z,23.70
2019-05-19T13:23:50.122Z,23.10
2019-05-19T13:26:22.462Z,22.70
2019-05-19T13:28:54.718Z,22.90
2019-05-19T13:31:33.820Z,22.90
2019-05-19T13:34:06.087Z,23.00
2019-05-19T13:36:40.387Z,23.20
2019-05-19T13:39:12.980Z,23.40
2019-05-19T13:41:45.180Z,23.30
2019-05-19T13:44:17.337Z,23.40
2019-05-19T13:46:50.234Z,23.40
2019-05-19T13:49:22.443Z,23.40
2019-05-19T13:51:55.337Z,23.30
2019-05-19T13:54:27.814Z,23.30
2019-05-19T13:57:11.919Z,23.30
2019-05-19T13:59:34.069Z,23.30
2019-05-19T14:02:06.778Z,23.30
2019-05-19T14:04:39.398Z,23.30
2019-05-19T14:07:11.700Z,23.30
2019-05-19T14:09:43.906Z,23.40
2019-05-19T14:12:16.041Z,23.50
2019-05-19T14:14:48.175Z,23.50
2019-05-19T14:17:20.308Z,23.50
2019-05-19T14:19:52.512Z,23.30
2019-05-19T14:22:24.850Z,23.20
2019-05-19T14:24:57.322Z,23.10
2019-05-19T14:27:31.118Z,22.90
2019-05-19T14:30:03.434Z,23.00
2019-05-19T14:32:35.704Z,23.00
2019-05-19T14:35:08.481Z,23.10
2019-05-19T14:37:40.773Z,23.10
2019-05-19T14:40:15.351Z,23.20
2019-05-19T14:42:54.991Z,23.20
2019-05-19T14:45:27.289Z,23.30
2019-05-19T14:47:59.788Z,23.30
2019-05-19T14:50:31.928Z,23.20
2019-05-19T14:53:04.120Z,23.20
2019-05-19T14:55:36.410Z,23.30
2019-05-19T14:58:08.807Z,23.50
2019-05-19T15:00:40.920Z,23.50
2019-05-19T15:03:13.601Z,23.60
2019-05-19T15:05:45.831Z,23.60
2019-05-19T15:08:17.979Z,23.80
2019-05-19T15:10:50.404Z,23.80
2019-05-19T15:13:22.766Z,23.80
2019-05-19T15:15:57.956Z,23.80
2019-05-19T15:18:29.131Z,23.80
2019-05-19T15:21:01.589Z,23.70
2019-05-19T15:23:33.804Z,23.50
2019-05-19T15:26:06.052Z,23.40
2019-05-19T15:28:38.233Z,23.50
2019-05-19T15:31:10.342Z,23.50
2019-05-19T15:33:42.528Z,23.30
2019-05-19T15:36:15.082Z,23.10
2019-05-19T15:38:47.249Z,23.10
2019-05-19T15:41:19.448Z,23.00
2019-05-19T15:43:51.747Z,22.90
2019-05-19T15:46:24.220Z,22.70
2019-05-19T15:48:56.417Z,22.60
2019-05-19T15:51:33.536Z,22.50
2019-05-19T15:54:02.364Z,22.50
2019-05-19T15:56:34.997Z,22.50
2019-05-19T15:59:07.285Z,22.40
2019-05-19T16:01:39.988Z,22.50
2019-05-19T16:04:12.168Z,22.50
2019-05-19T16:06:44.625Z,22.50
2019-05-19T16:09:16.865Z,22.50
2019-05-19T16:11:49.087Z,22.40
2019-05-19T16:14:21.705Z,22.40
2019-05-19T16:16:54.193Z,22.40
2019-05-19T16:19:26.346Z,22.40
2019-05-19T16:21:58.972Z,22.50
2019-05-19T16:24:31.477Z,22.50
2019-05-19T16:27:03.688Z,22.50
2019-05-19T16:29:35.983Z,22.40
2019-05-19T16:32:08.180Z,22.40
2019-05-19T16:34:41.427Z,22.40
2019-05-19T16:37:24.658Z,22.40
2019-05-19T16:39:57.311Z,22.30
2019-05-19T16:42:30.395Z,22.30
2019-05-19T16:45:02.553Z,22.20
2019-05-19T16:47:34.662Z,22.20
2019-05-19T16:50:07.159Z,22.20
2019-05-19T16:52:41.023Z,22.20
2019-05-19T16:55:32.423Z,22.30
2019-05-19T16:58:20.206Z,22.30
2019-05-19T17:00:38.655Z,22.40
2019-05-19T17:03:11.219Z,22.40
2019-05-19T17:05:43.424Z,22.50
2019-05-19T17:08:15.726Z,22.50
2019-05-19T17:10:47.886Z,22.50
2019-05-19T17:13:20.303Z,22.50
2019-05-19T17:15:52.499Z,22.50
2019-05-19T17:18:24.946Z,22.50
2019-05-19T17:20:57.131Z,22.40
2019-05-19T17:23:29.448Z,22.40
2019-05-19T17:26:01.653Z,22.30
2019-05-19T17:28:34.232Z,22.30
2019-05-19T17:31:07.740Z,22.20
2019-05-19T17:33:40.281Z,22.10
2019-05-19T17:36:12.673Z,22.10
2019-05-19T17:38:45.260Z,22.00
2019-05-19T17:41:21.222Z,21.90
2019-05-19T17:44:02.450Z,21.80
2019-05-19T17:46:34.970Z,21.80
2019-05-19T17:49:07.208Z,21.70
2019-05-19T17:51:39.540Z,21.80
2019-05-19T17:54:11.738Z,21.70
2019-05-19T17:56:44.732Z,21.80
2019-05-19T17:59:21.564Z,21.80
2019-05-19T18:01:54.009Z,21.80
2019-05-19T18:04:26.460Z,21.80
2019-05-19T18:06:59.071Z,21.80
2019-05-19T18:09:31.580Z,21.80
2019-05-19T18:12:04.241Z,21.80
2019-05-19T18:14:36.648Z,21.80
2019-05-19T18:17:09.030Z,21.90
2019-05-19T18:19:43.568Z,21.90
2019-05-19T18:22:16.126Z,21.80
2019-05-19T18:25:09.040Z,21.80
2019-05-19T18:27:43.393Z,21.70
2019-05-19T18:30:17.436Z,21.60
2019-05-19T18:32:54.282Z,21.50
2019-05-19T18:35:27.480Z,21.50
2019-05-19T18:38:00.657Z,21.50
2019-05-19T18:40:35.593Z,21.40
2019-05-19T18:43:15.232Z,21.40
2019-05-19T18:45:56.737Z,21.30
2019-05-19T18:48:31.247Z,21.30
2019-05-19T18:51:08.888Z,21.30
2019-05-19T18:53:45.929Z,21.20
2019-05-19T18:56:22.300Z,21.20
2019-05-19T18:59:08.608Z,21.10
2019-05-19T19:01:45.676Z,21.00
2019-05-19T19:04:18.194Z,20.90
2019-05-19T19:06:55.010Z,20.90
2019-05-19T19:09:27.700Z,20.80
2019-05-19T19:12:00.836Z,20.80
2019-05-19T19:14:33.720Z,20.70
2019-05-19T19:17:07.009Z,20.70
2019-05-19T19:19:42.953Z,20.60
2019-05-19T19:22:16.176Z,20.60
2019-05-19T19:24:53.831Z,20.50
2019-05-19T19:27:26.461Z,20.50
2019-05-19T19:30:03.331Z,20.50
2019-05-19T19:32:34.101Z,20.40
2019-05-19T19:35:06.836Z,20.30
2019-05-19T19:37:39.627Z,20.30
2019-05-19T19:40:13.436Z,20.20
2019-05-19T19:42:47.192Z,20.20
2019-05-19T19:45:19.977Z,20.10
2019-05-19T19:47:52.852Z,20.10
2019-05-19T19:50:25.320Z,20.00
2019-05-19T19:53:01.802Z,20.00
2019-05-19T19:55:39.638Z,19.90
2019-05-19T19:58:12.380Z,19.80
2019-05-19T20:00:47.579Z,19.80
2019-05-19T20:03:20.513Z,19.70
2019-05-19T20:05:55.714Z,19.70
2019-05-19T20:08:31.684Z,19.60
2019-05-19T20:11:05.338Z,19.60
2019-05-19T20:13:37.660Z,19.60
2019-05-19T20:16:10.151Z,19.50
2019-05-19T20:18:42.597Z,19.50
2019-05-19T20:21:16.525Z,19.50
2019-05-19T20:23:51.778Z,19.40
2019-05-19T20:26:27.260Z,19.40
2019-05-19T20:29:00.844Z,19.40
2019-05-19T20:31:34.098Z,19.30
2019-05-19T20:34:13.350Z,19.30
2019-05-19T20:36:45.595Z,19.20
2019-05-19T20:39:18.677Z,19.20
2019-05-19T20:41:54.632Z,19.10
2019-05-19T20:44:29.966Z,19.10
2019-05-19T20:47:04.559Z,19.10
2019-05-19T20:49:38.850Z,19.00
2019-05-19T20:52:12.845Z,18.90
2019-05-19T20:54:45.091Z,18.90
2019-05-19T20:57:17.565Z,18.80
2019-05-19T20:59:50.311Z,18.80
2019-05-19T21:02:22.711Z,18.70
2019-05-19T21:04:57.784Z,18.60
2019-05-19T21:07:30.326Z,18.60
2019-05-19T21:10:04.085Z,18.60
2019-05-19T21:12:36.896Z,18.50
2019-05-19T21:15:10.523Z,18.40
2019-05-19T21:17:43.455Z,18.40
2019-05-19T21:20:16.171Z,18.30
2019-05-19T21:22:48.964Z,18.30
2019-05-19T21:25:22.267Z,18.30
2019-05-19T21:27:54.840Z,18.20
2019-05-19T21:30:27.588Z,18.20
2019-05-19T21:33:00.081Z,18.10
2019-05-19T21:35:33.262Z,18.10
2019-05-19T21:38:06.035Z,18.00
2019-05-19T21:40:38.781Z,18.00
2019-05-19T21:43:11.622Z,17.90
2019-05-19T21:45:44.105Z,17.90
2019-05-19T21:48:18.193Z,17.80
2019-05-19T21:50:50.483Z,17.80
2019-05-19T21:53:23.191Z,17.80
2019-05-19T21:55:55.427Z,17.80
2019-05-19T21:58:28.090Z,17.70
2019-05-19T22:01:00.434Z,17.70
2019-05-19T22:03:33.057Z,17.70
2019-05-19T22:06:05.729Z,17.60
2019-05-19T22:08:39.653Z,17.50
2019-05-19T22:11:12.199Z,17.50
2019-05-19T22:13:45.595Z,17.40
2019-05-19T22:16:18.794Z,17.40
2019-05-19T22:18:51.055Z,17.40
2019-05-19T22:21:23.503Z,17.30
2019-05-19T22:23:55.681Z,17.30
2019-05-19T22:26:28.410Z,17.30
2019-05-19T22:29:01.115Z,17.20
2019-05-19T22:31:37.041Z,17.20
2019-05-19T22:34:07.936Z,17.10
2019-05-19T22:36:40.239Z,17.10
2019-05-19T22:39:12.631Z,17.10
2019-05-19T22:41:45.112Z,17.00
2019-05-19T22:44:20.333Z,17.00
2019-05-19T22:46:59.383Z,17.00
2019-05-19T22:49:34.366Z,16.90
2019-05-19T22:52:07.508Z,16.90
2019-05-19T22:54:40.906Z,16.80
2019-05-19T22:57:13.153Z,16.60
2019-05-19T22:59:46.400Z,16.60
2019-05-19T23:02:18.869Z,16.60
2019-05-19T23:04:51.658Z,16.60
2019-05-19T23:07:24.018Z,16.60
2019-05-19T23:09:56.351Z,16.60
2019-05-19T23:12:28.939Z,16.50
2019-05-19T23:15:01.443Z,16.50
2019-05-19T23:17:33.769Z,16.40
2019-05-19T23:20:06.651Z,16.40
2019-05-19T23:22:38.971Z,16.40
2019-05-19T23:25:18.304Z,16.30
2019-05-19T23:27:50.753Z,16.20
2019-05-19T23:30:24.127Z,16.20
2019-05-19T23:32:56.431Z,16.20
2019-05-19T23:35:28.742Z,16.10
2019-05-19T23:38:01.123Z,16.00
2019-05-19T23:40:33.475Z,16.00
2019-05-19T23:43:05.744Z,16.00
2019-05-19T23:45:38.111Z,15.90
2019-05-19T23:48:10.628Z,15.70
2019-05-19T23:50:42.916Z,15.70
2019-05-19T23:53:15.486Z,15.80
2019-05-19T23:55:48.055Z,15.80
2019-05-19T23:58:20.466Z,15.80
